New Nada — 3ELP9 — position and weather

sailwx.info

Track history (hours):
 
Tides and Currents Weather Stations Pressure Air Temp Water Temp Dewpoint Dewpoint Depression Visibility Wind Speed Wind Dir Waves Ship Positions

New Nada

Last reported at 2014-Aug-26 10:23 UTC. Time now 2014-Sep-20 14:04 UTC.
Position N 37°18' W 073°34'.
Warning: this ship's position is 25 days out of date.

Length 180 m; beam 32.2 m.

Type: Cargo ship. MMSI: 356005000.

Date/timePositionNaut miles runAvg speedWind from/ knotsBaromVisibWave heightAir tempDewpointWater temp
2014-Aug-26 10:23N 37°18' W 073°34'1417.3
2014-Aug-26 09:33N 37°32' W 073°33'1717.4
2014-Aug-26 08:33N 37°49' W 073°31'1817.7
2014-Aug-26 07:34N 38°07' W 073°30'2017.8
2014-Aug-26 06:27N 38°27' W 073°28'1618.1
2014-Aug-26 05:33N 38°43' W 073°29'1818.0
2014-Aug-26 04:33N 39°01' W 073°27'1818.0
2014-Aug-26 03:33N 39°19' W 073°26'1817.6
2014-Aug-26 02:34N 39°36' W 073°24'1817.6
2014-Aug-26 01:34N 39°54' W 073°23'1716.8
2014-Aug-26 00:33N 40°10' W 073°32'1817.2
2014-Aug-25 23:31N 40°24' W 073°46'1212.7
2014-Aug-25 22:34N 40°31' W 073°59'10 9.7
2014-Aug-25 21:33N 40°39' W 074°06'3 2.9
2014-Aug-25 20:32N 40°41' W 074°08'0 0.0
2014-Aug-25 19:32N 40°41' W 074°08'0 0.0
2014-Aug-25 18:32N 40°41' W 074°08'0 0.0
2014-Aug-25 17:32N 40°41' W 074°08'0 0.0
2014-Aug-25 16:29N 40°41' W 074°08'0 0.0
2014-Aug-25 15:32N 40°41' W 074°08'0 0.0
2014-Aug-25 14:32N 40°41' W 074°08'0 0.0
2014-Aug-25 13:32N 40°41' W 074°08'0 0.0
2014-Aug-25 12:32N 40°41' W 074°08'0 0.0
2014-Aug-25 11:32N 40°41' W 074°08'0 0.0
2014-Aug-25 10:32N 40°41' W 074°08'0 0.0
2014-Aug-25 09:32N 40°41' W 074°08'0 0.0
2014-Aug-25 08:32N 40°41' W 074°08'0 0.0
2014-Aug-25 07:32N 40°41' W 074°08'0 0.0
2014-Aug-25 06:32N 40°41' W 074°08'0 0.0
2014-Aug-25 05:32N 40°41' W 074°08'0 0.0
2014-Aug-25 04:32N 40°41' W 074°08'0 0.0
2014-Aug-25 03:32N 40°41' W 074°08'0 0.0
2014-Aug-25 02:32N 40°41' W 074°08'0 0.0
2014-Aug-25 01:32N 40°41' W 074°08'0 0.0
2014-Aug-25 00:32N 40°41' W 074°08'0 0.0
2014-Aug-24 23:32N 40°41' W 074°08'1 0.5
2014-Aug-24 22:34N 40°41' W 074°08'5 4.5
2014-Aug-24 21:33N 40°38' W 074°03'1010.5
2014-Aug-24 20:33N 40°30' W 073°55'8 7.8
2014-Aug-24 19:33N 40°25' W 073°47'1010.5
2014-Aug-24 18:33N 40°14' W 073°45'1110.7
2014-Aug-24 17:33N 40°04' W 073°44'1414.4
2014-Aug-24 16:33N 39°49' W 073°42'1616.0
2014-Aug-24 15:33N 39°33' W 073°42'1615.6
2014-Aug-24 14:32N 39°18' W 073°48'1515.5
2014-Aug-24 13:34N 39°04' W 073°53'1615.9
2014-Aug-24 12:33N 38°48' W 073°59'1616.0
2014-Aug-24 11:34N 38°33' W 074°05'24916.5
2014-Aug-23 20:30N 34°36' W 075°39'  
Track history (hours):
 
Tides and Currents Weather Stations Pressure Air Temp Water Temp Dewpoint Dewpoint Depression Visibility Wind Speed Wind Dir Waves Ship Positions

New Nada

Last reported at 2014-Aug-26 10:23 UTC. Time now 2014-Sep-20 14:04 UTC.
Position N 37°18' W 073°34'.
Warning: this ship's position is 25 days out of date.

Length 180 m; beam 32.2 m.

Type: Cargo ship. MMSI: 356005000.

Date/timePositionNaut miles runAvg speedWind from/ knotsBaromVisibWave heightAir tempDewpointWater temp
2014-Aug-26 10:23N 37°18' W 073°34'1417.3
2014-Aug-26 09:33N 37°32' W 073°33'1717.4
2014-Aug-26 08:33N 37°49' W 073°31'1817.7
2014-Aug-26 07:34N 38°07' W 073°30'2017.8
2014-Aug-26 06:27N 38°27' W 073°28'1618.1
2014-Aug-26 05:33N 38°43' W 073°29'1818.0
2014-Aug-26 04:33N 39°01' W 073°27'1818.0
2014-Aug-26 03:33N 39°19' W 073°26'1817.6
2014-Aug-26 02:34N 39°36' W 073°24'1817.6
2014-Aug-26 01:34N 39°54' W 073°23'1716.8
2014-Aug-26 00:33N 40°10' W 073°32'1817.2
2014-Aug-25 23:31N 40°24' W 073°46'1212.7
2014-Aug-25 22:34N 40°31' W 073°59'10 9.7
2014-Aug-25 21:33N 40°39' W 074°06'3 2.9
2014-Aug-25 20:32N 40°41' W 074°08'0 0.0
2014-Aug-25 19:32N 40°41' W 074°08'0 0.0
2014-Aug-25 18:32N 40°41' W 074°08'0 0.0
2014-Aug-25 17:32N 40°41' W 074°08'0 0.0
2014-Aug-25 16:29N 40°41' W 074°08'0 0.0
2014-Aug-25 15:32N 40°41' W 074°08'0 0.0
2014-Aug-25 14:32N 40°41' W 074°08'0 0.0
2014-Aug-25 13:32N 40°41' W 074°08'0 0.0
2014-Aug-25 12:32N 40°41' W 074°08'0 0.0
2014-Aug-25 11:32N 40°41' W 074°08'0 0.0
2014-Aug-25 10:32N 40°41' W 074°08'0 0.0
2014-Aug-25 09:32N 40°41' W 074°08'0 0.0
2014-Aug-25 08:32N 40°41' W 074°08'0 0.0
2014-Aug-25 07:32N 40°41' W 074°08'0 0.0
2014-Aug-25 06:32N 40°41' W 074°08'0 0.0
2014-Aug-25 05:32N 40°41' W 074°08'0 0.0
2014-Aug-25 04:32N 40°41' W 074°08'0 0.0
2014-Aug-25 03:32N 40°41' W 074°08'0 0.0
2014-Aug-25 02:32N 40°41' W 074°08'0 0.0
2014-Aug-25 01:32N 40°41' W 074°08'0 0.0
2014-Aug-25 00:32N 40°41' W 074°08'0 0.0
2014-Aug-24 23:32N 40°41' W 074°08'1 0.5
2014-Aug-24 22:34N 40°41' W 074°08'5 4.5
2014-Aug-24 21:33N 40°38' W 074°03'1010.5
2014-Aug-24 20:33N 40°30' W 073°55'8 7.8
2014-Aug-24 19:33N 40°25' W 073°47'1010.5
2014-Aug-24 18:33N 40°14' W 073°45'1110.7
2014-Aug-24 17:33N 40°04' W 073°44'1414.4
2014-Aug-24 16:33N 39°49' W 073°42'1616.0
2014-Aug-24 15:33N 39°33' W 073°42'1615.6
2014-Aug-24 14:32N 39°18' W 073°48'1515.5
2014-Aug-24 13:34N 39°04' W 073°53'1615.9
2014-Aug-24 12:33N 38°48' W 073°59'1616.0
2014-Aug-24 11:34N 38°33' W 074°05'24916.5
2014-Aug-23 20:30N 34°36' W 075°39'  

Dump ship's entire track history